sensor_id;sensor_type;location;lat;lon;timestamp;pressure;altitude;pressure_sealevel;temperature;humidity
42859;BME280;28505;56.970;40.998;2023-02-19T00:02:46;98986.28;;;-6.91;100.00
42859;BME280;28505;56.970;40.998;2023-02-19T00:08:08;98983.06;;;-6.86;100.00
42859;BME280;28505;56.970;40.998;2023-02-19T00:13:34;98986.91;;;-6.89;100.00
42859;BME280;28505;56.970;40.998;2023-02-19T00:18:58;98978.03;;;-6.88;100.00
42859;BME280;28505;56.970;40.998;2023-02-19T00:24:20;98958.66;;;-6.93;100.00
42859;BME280;28505;56.970;40.998;2023-02-19T00:35:23;98937.91;;;-6.88;100.00
42859;BME280;28505;56.970;40.998;2023-02-19T00:40:45;98917.41;;;-7.04;100.00
42859;BME280;28505;56.970;40.998;2023-02-19T00:46:07;98934.13;;;-6.99;100.00
42859;BME280;28505;56.970;40.998;2023-02-19T00:51:34;98885.59;;;-7.21;100.00
42859;BME280;28505;56.970;40.998;2023-02-19T00:56:57;98899.47;;;-7.08;100.00
42859;BME280;28505;56.970;40.998;2023-02-19T01:02:19;98912.13;;;-6.98;100.00
42859;BME280;28505;56.970;40.998;2023-02-19T01:07:42;98926.63;;;-6.89;100.00
42859;BME280;28505;56.970;40.998;2023-02-19T01:13:04;98885.75;;;-7.10;100.00
42859;BME280;28505;56.970;40.998;2023-02-19T01:18:26;98877.13;;;-7.23;100.00
42859;BME280;28505;56.970;40.998;2023-02-19T01:23:49;98902.28;;;-7.02;100.00
42859;BME280;28505;56.970;40.998;2023-02-19T01:29:12;98900.25;;;-7.00;100.00
42859;BME280;28505;56.970;40.998;2023-02-19T01:34:34;98897.22;;;-6.97;100.00
42859;BME280;28505;56.970;40.998;2023-02-19T01:39:56;98885.13;;;-6.98;100.00
42859;BME280;28505;56.970;40.998;2023-02-19T01:45:21;98890.13;;;-6.90;100.00
42859;BME280;28505;56.970;40.998;2023-02-19T01:50:47;98882.31;;;-6.97;100.00
42859;BME280;28505;56.970;40.998;2023-02-19T01:56:12;98896.00;;;-6.95;100.00
42859;BME280;28505;56.970;40.998;2023-02-19T02:01:37;98891.56;;;-6.94;100.00
42859;BME280;28505;56.970;40.998;2023-02-19T02:07:02;98875.69;;;-6.99;100.00
42859;BME280;28505;56.970;40.998;2023-02-19T02:12:46;98880.28;;;-6.95;100.00
42859;BME280;28505;56.970;40.998;2023-02-19T02:35:33;98847.91;;;-7.20;100.00
42859;BME280;28505;56.970;40.998;2023-02-19T02:40:59;98831.00;;;-7.24;100.00
42859;BME280;28505;56.970;40.998;2023-02-19T02:46:33;98851.31;;;-7.13;100.00
42859;BME280;28505;56.970;40.998;2023-02-19T02:51:59;98839.25;;;-7.21;100.00
42859;BME280;28505;56.970;40.998;2023-02-19T02:57:42;98824.19;;;-7.25;100.00
42859;BME280;28505;56.970;40.998;2023-02-19T03:03:05;98826.97;;;-7.27;100.00
42859;BME280;28505;56.970;40.998;2023-02-19T03:08:37;98819.34;;;-7.28;100.00
42859;BME280;28505;56.970;40.998;2023-02-19T03:14:15;98844.47;;;-7.14;100.00
42859;BME280;28505;56.970;40.998;2023-02-19T03:20:00;98806.06;;;-7.34;100.00
42859;BME280;28505;56.970;40.998;2023-02-19T03:32:40;98817.50;;;-7.21;100.00
42859;BME280;28505;56.970;40.998;2023-02-19T03:38:12;98819.91;;;-7.20;100.00
42859;BME280;28505;56.970;40.998;2023-02-19T03:50:04;98820.88;;;-7.08;100.00
42859;BME280;28505;56.970;40.998;2023-02-19T03:56:01;98815.03;;;-7.10;100.00
42859;BME280;28505;56.970;40.998;2023-02-19T04:01:43;98809.78;;;-7.10;100.00
42859;BME280;28505;56.970;40.998;2023-02-19T04:07:08;98817.88;;;-7.11;100.00
42859;BME280;28505;56.970;40.998;2023-02-19T04:12:36;98819.72;;;-7.18;100.00
42859;BME280;28505;56.970;40.998;2023-02-19T04:18:17;98804.47;;;-7.41;100.00
42859;BME280;28505;56.970;40.998;2023-02-19T04:23:43;98799.22;;;-7.41;100.00
42859;BME280;28505;56.970;40.998;2023-02-19T04:29:06;98805.03;;;-7.33;100.00
42859;BME280;28505;56.970;40.998;2023-02-19T04:34:28;98798.00;;;-7.32;100.00
42859;BME280;28505;56.970;40.998;2023-02-19T04:39:50;98796.38;;;-7.33;100.00
42859;BME280;28505;56.970;40.998;2023-02-19T04:45:12;98786.31;;;-7.36;100.00
42859;BME280;28505;56.970;40.998;2023-02-19T04:50:37;98777.91;;;-7.45;100.00
42859;BME280;28505;56.970;40.998;2023-02-19T04:56:30;98799.38;;;-7.30;100.00
42859;BME280;28505;56.970;40.998;2023-02-19T05:01:54;98781.31;;;-7.44;100.00
42859;BME280;28505;56.970;40.998;2023-02-19T05:07:20;98799.22;;;-7.35;100.00
42859;BME280;28505;56.970;40.998;2023-02-19T05:12:46;98776.50;;;-7.47;100.00
42859;BME280;28505;56.970;40.998;2023-02-19T05:18:08;98778.31;;;-7.48;100.00
42859;BME280;28505;56.970;40.998;2023-02-19T05:23:33;98788.34;;;-7.38;100.00
42859;BME280;28505;56.970;40.998;2023-02-19T05:28:58;98755.75;;;-7.56;100.00
42859;BME280;28505;56.970;40.998;2023-02-19T05:34:22;98754.38;;;-7.58;100.00
42859;BME280;28505;56.970;40.998;2023-02-19T05:39:44;98747.78;;;-7.74;100.00
42859;BME280;28505;56.970;40.998;2023-02-19T05:45:06;98745.13;;;-7.67;100.00
42859;BME280;28505;56.970;40.998;2023-02-19T05:50:31;98772.69;;;-7.51;100.00
42859;BME280;28505;56.970;40.998;2023-02-19T06:01:41;98768.03;;;-7.49;100.00
42859;BME280;28505;56.970;40.998;2023-02-19T06:07:03;98753.94;;;-7.48;100.00
42859;BME280;28505;56.970;40.998;2023-02-19T06:12:25;98765.97;;;-7.34;100.00
42859;BME280;28505;56.970;40.998;2023-02-19T06:17:47;98752.69;;;-7.39;100.00
42859;BME280;28505;56.970;40.998;2023-02-19T06:23:09;98724.13;;;-7.41;100.00
42859;BME280;28505;56.970;40.998;2023-02-19T06:28:31;98736.59;;;-7.43;100.00
42859;BME280;28505;56.970;40.998;2023-02-19T06:33:53;98744.00;;;-7.26;100.00
42859;BME280;28505;56.970;40.998;2023-02-19T06:39:16;98709.63;;;-7.43;100.00
42859;BME280;28505;56.970;40.998;2023-02-19T06:44:37;98744.16;;;-7.15;100.00
42859;BME280;28505;56.970;40.998;2023-02-19T06:49:59;98733.31;;;-7.25;100.00
42859;BME280;28505;56.970;40.998;2023-02-19T06:55:23;98722.28;;;-7.34;100.00
42859;BME280;28505;56.970;40.998;2023-02-19T07:00:45;98734.50;;;-7.21;100.00
42859;BME280;28505;56.970;40.998;2023-02-19T07:06:06;98730.28;;;-7.22;100.00
42859;BME280;28505;56.970;40.998;2023-02-19T07:11:30;98714.59;;;-7.28;100.00
42859;BME280;28505;56.970;40.998;2023-02-19T07:16:53;98727.72;;;-7.35;100.00
42859;BME280;28505;56.970;40.998;2023-02-19T07:22:14;98722.44;;;-7.22;100.00
42859;BME280;28505;56.970;40.998;2023-02-19T07:27:36;98730.84;;;-7.13;100.00
42859;BME280;28505;56.970;40.998;2023-02-19T07:32:59;98717.38;;;-7.23;100.00
42859;BME280;28505;56.970;40.998;2023-02-19T07:38:23;98722.44;;;-7.22;100.00
42859;BME280;28505;56.970;40.998;2023-02-19T07:43:45;98705.06;;;-7.16;100.00
42859;BME280;28505;56.970;40.998;2023-02-19T07:49:07;98678.78;;;-7.35;100.00
42859;BME280;28505;56.970;40.998;2023-02-19T07:54:29;98697.84;;;-7.21;100.00
42859;BME280;28505;56.970;40.998;2023-02-19T07:59:51;98679.50;;;-7.21;100.00
42859;BME280;28505;56.970;40.998;2023-02-19T08:05:12;98691.78;;;-7.15;100.00
42859;BME280;28505;56.970;40.998;2023-02-19T08:10:34;98653.97;;;-7.25;100.00
42859;BME280;28505;56.970;40.998;2023-02-19T08:16:16;98689.66;;;-6.93;100.00
42859;BME280;28505;56.970;40.998;2023-02-19T08:21:53;98684.63;;;-7.01;100.00
42859;BME280;28505;56.970;40.998;2023-02-19T08:27:15;98672.00;;;-7.11;100.00
42859;BME280;28505;56.970;40.998;2023-02-19T08:32:37;98686.84;;;-6.98;100.00
42859;BME280;28505;56.970;40.998;2023-02-19T08:37:59;98682.41;;;-6.97;100.00
42859;BME280;28505;56.970;40.998;2023-02-19T08:43:21;98674.78;;;-6.99;100.00
42859;BME280;28505;56.970;40.998;2023-02-19T08:48:43;98685.41;;;-6.94;100.00
42859;BME280;28505;56.970;40.998;2023-02-19T08:54:05;98680.38;;;-6.95;100.00
42859;BME280;28505;56.970;40.998;2023-02-19T08:59:28;98663.06;;;-6.96;100.00
42859;BME280;28505;56.970;40.998;2023-02-19T09:04:49;98641.19;;;-7.09;100.00
42859;BME280;28505;56.970;40.998;2023-02-19T09:10:12;98660.50;;;-6.78;100.00
42859;BME280;28505;56.970;40.998;2023-02-19T09:15:37;98628.53;;;-6.87;100.00
42859;BME280;28505;56.970;40.998;2023-02-19T09:21:00;98638.69;;;-6.72;100.00
42859;BME280;28505;56.970;40.998;2023-02-19T09:26:22;98646.31;;;-6.64;100.00
42859;BME280;28505;56.970;40.998;2023-02-19T09:31:45;98649.81;;;-6.76;100.00
42859;BME280;28505;56.970;40.998;2023-02-19T09:37:11;98609.41;;;-7.19;100.00
42859;BME280;28505;56.970;40.998;2023-02-19T09:42:33;98602.31;;;-7.12;100.00
42859;BME280;28505;56.970;40.998;2023-02-19T09:47:59;98638.38;;;-6.82;100.00
42859;BME280;28505;56.970;40.998;2023-02-19T09:53:27;98615.00;;;-6.84;100.00
42859;BME280;28505;56.970;40.998;2023-02-19T09:58:54;98573.06;;;-6.84;100.00
42859;BME280;28505;56.970;40.998;2023-02-19T10:04:19;98579.97;;;-6.89;100.00
42859;BME280;28505;56.970;40.998;2023-02-19T10:09:44;98573.66;;;-7.07;100.00
42859;BME280;28505;56.970;40.998;2023-02-19T10:15:28;98622.66;;;-6.82;100.00
42859;BME280;28505;56.970;40.998;2023-02-19T10:20:51;98615.06;;;-6.65;100.00
42859;BME280;28505;56.970;40.998;2023-02-19T10:26:13;98592.84;;;-6.63;100.00
42859;BME280;28505;56.970;40.998;2023-02-19T10:31:46;98595.97;;;-6.47;100.00
42859;BME280;28505;56.970;40.998;2023-02-19T10:37:17;98576.41;;;-6.51;100.00
42859;BME280;28505;56.970;40.998;2023-02-19T10:42:47;98591.56;;;-6.53;100.00
42859;BME280;28505;56.970;40.998;2023-02-19T10:48:23;98586.59;;;-6.62;100.00
42859;BME280;28505;56.970;40.998;2023-02-19T10:54:04;98583.41;;;-6.45;100.00
42859;BME280;28505;56.970;40.998;2023-02-19T10:59:30;98583.47;;;-6.52;100.00
42859;BME280;28505;56.970;40.998;2023-02-19T11:10:28;98551.34;;;-6.66;100.00
42859;BME280;28505;56.970;40.998;2023-02-19T11:15:53;98574.66;;;-6.57;100.00
42859;BME280;28505;56.970;40.998;2023-02-19T11:21:25;98544.41;;;-6.78;100.00
42859;BME280;28505;56.970;40.998;2023-02-19T11:26:53;98574.03;;;-6.53;100.00
42859;BME280;28505;56.970;40.998;2023-02-19T11:32:28;98573.91;;;-6.65;100.00
42859;BME280;28505;56.970;40.998;2023-02-19T11:37:59;98572.56;;;-6.74;100.00
42859;BME280;28505;56.970;40.998;2023-02-19T11:43:47;98564.16;;;-6.76;100.00
42859;BME280;28505;56.970;40.998;2023-02-19T11:49:24;98564.34;;;-6.77;100.00
42859;BME280;28505;56.970;40.998;2023-02-19T11:54:53;98504.97;;;-7.09;100.00
42859;BME280;28505;56.970;40.998;2023-02-19T12:00:26;98560.97;;;-6.60;100.00
42859;BME280;28505;56.970;40.998;2023-02-19T12:28:08;98553.38;;;-6.68;100.00
42859;BME280;28505;56.970;40.998;2023-02-19T12:45:19;98548.97;;;-6.49;100.00
42859;BME280;28505;56.970;40.998;2023-02-19T12:50:48;98552.53;;;-6.43;100.00
42859;BME280;28505;56.970;40.998;2023-02-19T12:56:20;98545.75;;;-6.51;100.00
42859;BME280;28505;56.970;40.998;2023-02-19T13:01:59;98553.78;;;-6.46;100.00
42859;BME280;28505;56.970;40.998;2023-02-19T13:07:29;98550.00;;;-6.50;100.00
42859;BME280;28505;56.970;40.998;2023-02-19T13:12:54;98544.59;;;-6.55;100.00
42859;BME280;28505;56.970;40.998;2023-02-19T13:18:23;98531.41;;;-6.67;100.00
42859;BME280;28505;56.970;40.998;2023-02-19T13:23:46;98542.25;;;-6.63;100.00
42859;BME280;28505;56.970;40.998;2023-02-19T13:40:31;98537.28;;;-6.71;100.00
42859;BME280;28505;56.970;40.998;2023-02-19T13:45:56;98542.09;;;-6.68;100.00
42859;BME280;28505;56.970;40.998;2023-02-19T13:56:45;98541.91;;;-6.67;100.00
42859;BME280;28505;56.970;40.998;2023-02-19T14:02:12;98542.25;;;-6.63;100.00
42859;BME280;28505;56.970;40.998;2023-02-19T14:07:53;98523.75;;;-6.68;100.00
42859;BME280;28505;56.970;40.998;2023-02-19T14:36:48;98513.34;;;-6.75;100.00
42859;BME280;28505;56.970;40.998;2023-02-19T14:42:22;98504.44;;;-6.74;100.00
42859;BME280;28505;56.970;40.998;2023-02-19T14:47:57;98500.59;;;-6.71;100.00
42859;BME280;28505;56.970;40.998;2023-02-19T14:53:37;98519.47;;;-6.63;100.00
42859;BME280;28505;56.970;40.998;2023-02-19T15:12:46;98490.34;;;-6.73;100.00
42859;BME280;28505;56.970;40.998;2023-02-19T15:18:33;98524.56;;;-6.49;100.00
42859;BME280;28505;56.970;40.998;2023-02-19T15:24:03;98506.06;;;-6.54;100.00
42859;BME280;28505;56.970;40.998;2023-02-19T15:29:44;98498.06;;;-6.60;100.00
42859;BME280;28505;56.970;40.998;2023-02-19T15:35:18;98498.28;;;-6.61;100.00
42859;BME280;28505;56.970;40.998;2023-02-19T15:40:43;98476.34;;;-6.85;100.00
42859;BME280;28505;56.970;40.998;2023-02-19T15:46:25;98488.16;;;-6.76;100.00
42859;BME280;28505;56.970;40.998;2023-02-19T15:51:56;98499.59;;;-6.70;100.00
42859;BME280;28505;56.970;40.998;2023-02-19T15:57:28;98478.66;;;-6.77;100.00
42859;BME280;28505;56.970;40.998;2023-02-19T16:02:51;98460.75;;;-6.98;100.00
42859;BME280;28505;56.970;40.998;2023-02-19T16:13:35;98465.63;;;-7.02;100.00
42859;BME280;28505;56.970;40.998;2023-02-19T16:18:59;98471.19;;;-6.92;100.00
42859;BME280;28505;56.970;40.998;2023-02-19T16:24:33;98482.81;;;-6.88;100.00
42859;BME280;28505;56.970;40.998;2023-02-19T16:29:58;98486.03;;;-6.86;100.00
42859;BME280;28505;56.970;40.998;2023-02-19T16:35:38;98467.59;;;-6.97;100.00
42859;BME280;28505;56.970;40.998;2023-02-19T16:41:14;98457.13;;;-6.97;100.00
42859;BME280;28505;56.970;40.998;2023-02-19T16:46:40;98468.13;;;-6.89;100.00
42859;BME280;28505;56.970;40.998;2023-02-19T16:52:02;98446.34;;;-7.08;100.00
42859;BME280;28505;56.970;40.998;2023-02-19T16:57:25;98453.03;;;-7.12;100.00
42859;BME280;28505;56.970;40.998;2023-02-19T17:02:50;98472.09;;;-7.04;100.00
42859;BME280;28505;56.970;40.998;2023-02-19T17:13:48;98466.13;;;-7.12;100.00
42859;BME280;28505;56.970;40.998;2023-02-19T17:19:18;98449.50;;;-7.24;100.00
42859;BME280;28505;56.970;40.998;2023-02-19T17:24:40;98474.19;;;-7.13;100.00
42859;BME280;28505;56.970;40.998;2023-02-19T17:30:10;98456.63;;;-7.31;100.00
42859;BME280;28505;56.970;40.998;2023-02-19T17:35:34;98476.84;;;-7.20;100.00
42859;BME280;28505;56.970;40.998;2023-02-19T17:40:56;98472.28;;;-7.24;100.00
42859;BME280;28505;56.970;40.998;2023-02-19T17:46:21;98482.63;;;-7.36;100.00
42859;BME280;28505;56.970;40.998;2023-02-19T17:51:43;98474.78;;;-7.36;100.00
42859;BME280;28505;56.970;40.998;2023-02-19T17:57:05;98465.34;;;-7.37;100.00
42859;BME280;28505;56.970;40.998;2023-02-19T18:02:27;98459.03;;;-7.55;100.00
42859;BME280;28505;56.970;40.998;2023-02-19T18:07:49;98473.28;;;-7.50;100.00
42859;BME280;28505;56.970;40.998;2023-02-19T18:13:11;98458.06;;;-7.60;100.00
42859;BME280;28505;56.970;40.998;2023-02-19T18:18:33;98448.00;;;-7.63;100.00
42859;BME280;28505;56.970;40.998;2023-02-19T18:23:55;98471.69;;;-7.51;100.00
42859;BME280;28505;56.970;40.998;2023-02-19T18:29:17;98477.44;;;-7.68;100.00
42859;BME280;28505;56.970;40.998;2023-02-19T18:34:40;98437.94;;;-7.91;100.00
42859;BME280;28505;56.970;40.998;2023-02-19T18:40:05;98436.97;;;-7.97;100.00
42859;BME280;28505;56.970;40.998;2023-02-19T18:45:28;98426.97;;;-8.07;100.00
42859;BME280;28505;56.970;40.998;2023-02-19T18:50:55;98463.94;;;-7.96;100.00
42859;BME280;28505;56.970;40.998;2023-02-19T18:56:23;98441.03;;;-8.08;100.00
42859;BME280;28505;56.970;40.998;2023-02-19T19:01:45;98473.38;;;-7.95;100.00
42859;BME280;28505;56.970;40.998;2023-02-19T19:07:10;98431.06;;;-8.17;100.00
42859;BME280;28505;56.970;40.998;2023-02-19T19:12:35;98445.34;;;-8.20;100.00
42859;BME280;28505;56.970;40.998;2023-02-19T19:17:58;98441.19;;;-8.34;100.00
42859;BME280;28505;56.970;40.998;2023-02-19T19:23:22;98435.63;;;-8.44;100.00
42859;BME280;28505;56.970;40.998;2023-02-19T19:28:43;98447.28;;;-8.40;100.00
42859;BME280;28505;56.970;40.998;2023-02-19T19:34:07;98413.63;;;-8.68;100.00
42859;BME280;28505;56.970;40.998;2023-02-19T19:39:30;98475.22;;;-8.41;100.00
42859;BME280;28505;56.970;40.998;2023-02-19T19:44:51;98477.41;;;-8.38;100.00
42859;BME280;28505;56.970;40.998;2023-02-19T19:50:16;98439.31;;;-8.59;100.00
42859;BME280;28505;56.970;40.998;2023-02-19T19:55:39;98445.78;;;-8.68;100.00
42859;BME280;28505;56.970;40.998;2023-02-19T20:01:00;98447.78;;;-8.70;100.00
42859;BME280;28505;56.970;40.998;2023-02-19T20:06:27;98461.69;;;-8.69;100.00
42859;BME280;28505;56.970;40.998;2023-02-19T20:11:51;98464.06;;;-8.68;100.00
42859;BME280;28505;56.970;40.998;2023-02-19T20:17:13;98444.81;;;-8.80;100.00
42859;BME280;28505;56.970;40.998;2023-02-19T20:22:35;98463.47;;;-8.70;100.00
42859;BME280;28505;56.970;40.998;2023-02-19T20:27:59;98471.50;;;-8.65;100.00
42859;BME280;28505;56.970;40.998;2023-02-19T20:33:21;98470.06;;;-8.61;100.00
42859;BME280;28505;56.970;40.998;2023-02-19T20:38:44;98460.22;;;-8.59;100.00
42859;BME280;28505;56.970;40.998;2023-02-19T20:44:06;98419.91;;;-8.76;100.00
42859;BME280;28505;56.970;40.998;2023-02-19T20:49:30;98437.34;;;-8.70;100.00
42859;BME280;28505;56.970;40.998;2023-02-19T20:54:54;98437.94;;;-8.68;100.00
42859;BME280;28505;56.970;40.998;2023-02-19T21:00:17;98440.59;;;-8.81;100.00
42859;BME280;28505;56.970;40.998;2023-02-19T21:05:39;98432.16;;;-8.83;100.00
42859;BME280;28505;56.970;40.998;2023-02-19T21:11:03;98420.94;;;-8.90;100.00
42859;BME280;28505;56.970;40.998;2023-02-19T21:16:27;98439.19;;;-8.84;100.00
42859;BME280;28505;56.970;40.998;2023-02-19T21:21:50;98430.34;;;-8.89;100.00
42859;BME280;28505;56.970;40.998;2023-02-19T21:27:12;98417.31;;;-8.96;100.00
42859;BME280;28505;56.970;40.998;2023-02-19T21:32:34;98447.81;;;-8.83;100.00
42859;BME280;28505;56.970;40.998;2023-02-19T21:37:59;98446.63;;;-8.87;100.00
42859;BME280;28505;56.970;40.998;2023-02-19T21:43:21;98452.66;;;-8.87;100.00
42859;BME280;28505;56.970;40.998;2023-02-19T21:48:49;98448.06;;;-8.91;100.00
42859;BME280;28505;56.970;40.998;2023-02-19T21:54:18;98447.06;;;-8.97;100.00
42859;BME280;28505;56.970;40.998;2023-02-19T21:59:42;98426.56;;;-8.93;100.00
42859;BME280;28505;56.970;40.998;2023-02-19T22:05:04;98431.59;;;-8.92;100.00
42859;BME280;28505;56.970;40.998;2023-02-19T22:10:27;98428.00;;;-8.98;100.00
42859;BME280;28505;56.970;40.998;2023-02-19T22:15:50;98431.81;;;-9.07;100.00
42859;BME280;28505;56.970;40.998;2023-02-19T22:21:12;98433.44;;;-8.99;100.00
42859;BME280;28505;56.970;40.998;2023-02-19T22:26:34;98435.03;;;-9.05;100.00
42859;BME280;28505;56.970;40.998;2023-02-19T22:31:56;98427.81;;;-9.16;100.00
42859;BME280;28505;56.970;40.998;2023-02-19T22:37:19;98421.38;;;-9.13;100.00
42859;BME280;28505;56.970;40.998;2023-02-19T22:42:41;98415.16;;;-9.19;100.00
42859;BME280;28505;56.970;40.998;2023-02-19T22:48:03;98416.38;;;-9.15;100.00
42859;BME280;28505;56.970;40.998;2023-02-19T22:53:25;98421.19;;;-9.12;100.00
42859;BME280;28505;56.970;40.998;2023-02-19T22:58:47;98419.59;;;-9.20;100.00
42859;BME280;28505;56.970;40.998;2023-02-19T23:04:09;98393.72;;;-9.28;100.00
42859;BME280;28505;56.970;40.998;2023-02-19T23:09:32;98422.59;;;-9.23;100.00
42859;BME280;28505;56.970;40.998;2023-02-19T23:14:56;98411.78;;;-9.26;100.00
42859;BME280;28505;56.970;40.998;2023-02-19T23:20:18;98398.75;;;-9.33;100.00
42859;BME280;28505;56.970;40.998;2023-02-19T23:25:39;98402.94;;;-9.38;100.00
42859;BME280;28505;56.970;40.998;2023-02-19T23:31:04;98388.53;;;-9.48;100.00
42859;BME280;28505;56.970;40.998;2023-02-19T23:36:27;98411.59;;;-9.38;100.00
42859;BME280;28505;56.970;40.998;2023-02-19T23:41:51;98411.19;;;-9.35;100.00
42859;BME280;28505;56.970;40.998;2023-02-19T23:47:14;98409.41;;;-9.48;100.00
42859;BME280;28505;56.970;40.998;2023-02-19T23:52:36;98413.22;;;-9.44;100.00
42859;BME280;28505;56.970;40.998;2023-02-19T23:57:58;98407.19;;;-9.51;100.00
